Time;durP1;ratioP1;P1;durP2;ratioP2;P2;SDS_P1;SDS_P2;PMS_P1;PMS_P2;Temp;Humidity;BMP_temperature;BMP_pressure;BME280_temperature;BME280_humidity;BME280_pressure;Samples;Min_cycle;Max_cycle;Signal;HPM_P1;HPM_P2
2023/12/12 00:01:37;;;;;;;4.27;2.30;;;8.00;99.90;;;;;;6189357;23;20377;-70
2023/12/12 00:04:13;;;;;;;3.50;1.70;;;8.00;99.90;;;;;;6190115;23;20408;-69
2023/12/12 00:06:40;;;;;;;2.50;2.27;;;8.00;99.90;;;;;;6191881;23;20424;-69
2023/12/12 00:09:09;;;;;;;3.00;2.13;;;8.00;99.90;;;;;;6192885;23;20396;-70
2023/12/12 00:11:36;;;;;;;2.80;2.30;;;8.00;99.90;;;;;;6191400;23;20453;-71
2023/12/12 00:14:03;;;;;;;5.47;1.93;;;8.00;99.90;;;;;;6189310;23;20389;-71
2023/12/12 00:16:51;;;;;;;2.63;1.73;;;8.00;99.90;;;;;;6197329;23;20417;-69
2023/12/12 00:19:20;;;;;;;3.77;2.40;;;7.90;99.90;;;;;;6212970;23;20397;-69
2023/12/12 00:21:58;;;;;;;5.20;2.47;;;7.90;99.90;;;;;;6197235;23;20687;-70
2023/12/12 00:24:25;;;;;;;5.23;3.50;;;7.90;99.90;;;;;;6190894;23;20435;-70
2023/12/12 00:26:58;;;;;;;4.27;2.87;;;7.90;99.90;;;;;;6189050;23;20525;-70
2023/12/12 00:29:26;;;;;;;2.60;1.90;;;7.90;99.90;;;;;;6189445;23;20410;-69
2023/12/12 00:31:52;;;;;;;2.70;2.07;;;7.90;99.90;;;;;;6187701;23;20960;-70
2023/12/12 00:34:39;;;;;;;3.97;2.27;;;7.90;99.90;;;;;;6189408;23;20413;-69
2023/12/12 00:37:06;;;;;;;2.87;2.30;;;7.90;99.90;;;;;;6190882;23;20799;-69
2023/12/12 00:39:38;;;;;;;2.60;2.30;;;7.90;99.90;;;;;;6193109;23;20381;-69
2023/12/12 00:45:30;;;;;;;4.67;2.13;;;7.90;99.90;;;;;;6193714;23;20433;-68
2023/12/12 00:48:10;;;;;;;2.53;1.77;;;7.90;99.90;;;;;;6191854;23;20425;-69
2023/12/12 00:50:39;;;;;;;2.80;2.03;;;8.00;99.90;;;;;;6192396;23;20472;-70
2023/12/12 00:53:26;;;;;;;3.10;2.47;;;8.00;99.90;;;;;;6191918;23;20471;-69
2023/12/12 00:56:12;;;;;;;3.60;2.53;;;8.00;99.90;;;;;;6192031;23;20415;-69
2023/12/12 00:58:39;;;;;;;4.90;2.50;;;8.00;99.90;;;;;;6188255;23;20416;-69
2023/12/12 01:01:06;;;;;;;3.97;2.70;;;8.10;99.90;;;;;;6187541;23;20381;-69
2023/12/12 01:03:35;;;;;;;2.90;2.40;;;8.10;99.90;;;;;;6187584;23;20436;-67
2023/12/12 01:06:03;;;;;;;2.53;1.87;;;8.10;99.90;;;;;;6189238;23;20384;-70
2023/12/12 01:08:31;;;;;;;4.37;2.63;;;8.10;99.90;;;;;;6189866;23;20863;-70
2023/12/12 01:10:59;;;;;;;3.07;2.43;;;8.10;99.90;;;;;;6189317;23;20803;-68
2023/12/12 01:13:26;;;;;;;3.17;2.20;;;8.20;99.90;;;;;;6187475;23;20404;-69
2023/12/12 01:15:53;;;;;;;3.03;2.00;;;8.20;99.90;;;;;;6187639;23;20404;-69
2023/12/12 01:18:22;;;;;;;2.93;2.10;;;8.20;99.90;;;;;;6188356;23;20425;-68
2023/12/12 01:20:50;;;;;;;3.70;1.90;;;8.20;99.90;;;;;;6189081;23;20382;-68
2023/12/12 01:23:19;;;;;;;5.27;2.60;;;8.20;99.90;;;;;;6189312;23;20397;-69
2023/12/12 01:25:46;;;;;;;3.93;2.70;;;8.10;99.90;;;;;;6191204;23;20381;-71
2023/12/12 01:28:21;;;;;;;5.00;3.07;;;8.20;99.90;;;;;;6188953;23;20488;-68
2023/12/12 01:30:54;;;;;;;3.73;2.50;;;8.20;99.90;;;;;;6188597;23;20518;-68
2023/12/12 01:33:23;;;;;;;3.23;2.17;;;8.20;99.90;;;;;;6188612;23;20381;-71
2023/12/12 01:35:50;;;;;;;2.53;1.90;;;8.20;99.90;;;;;;6164922;23;20440;-67
2023/12/12 01:38:20;;;;;;;4.13;1.77;;;8.20;99.90;;;;;;6165649;23;20456;-70
2023/12/12 01:40:48;;;;;;;3.17;2.30;;;8.20;99.90;;;;;;6192197;23;20425;-69
2023/12/12 01:43:31;;;;;;;2.70;2.33;;;8.10;99.90;;;;;;6192592;23;20388;-69
2023/12/12 01:45:59;;;;;;;3.97;2.60;;;8.10;99.90;;;;;;6169611;23;20389;-68
2023/12/12 01:48:28;;;;;;;5.30;2.77;;;8.10;99.90;;;;;;6200701;23;20385;-68
2023/12/12 01:51:08;;;;;;;3.33;2.13;;;8.20;99.90;;;;;;6196044;23;20440;-68
2023/12/12 01:53:40;;;;;;;3.60;2.33;;;8.20;99.90;;;;;;6188952;23;20417;-69
2023/12/12 01:56:08;;;;;;;3.90;2.30;;;8.20;99.90;;;;;;6188373;23;20476;-67
2023/12/12 01:58:39;;;;;;;5.50;2.23;;;8.20;99.90;;;;;;6187797;23;20413;-68
2023/12/12 02:01:06;;;;;;;4.43;2.93;;;8.20;99.90;;;;;;6186415;23;20429;-68
2023/12/12 02:03:35;;;;;;;3.70;2.53;;;8.20;99.90;;;;;;6187588;23;20385;-67
2023/12/12 02:06:03;;;;;;;3.83;2.83;;;8.20;99.90;;;;;;6189449;23;20385;-67
2023/12/12 02:09:19;;;;;;;3.50;2.17;;;8.20;99.90;;;;;;6190352;23;20389;-69
2023/12/12 02:11:47;;;;;;;3.83;2.60;;;8.10;99.90;;;;;;6189602;23;20425;-67
2023/12/12 02:14:14;;;;;;;4.30;2.80;;;8.20;99.90;;;;;;6189194;23;20397;-68
2023/12/12 02:16:41;;;;;;;4.80;2.50;;;8.20;99.90;;;;;;6192445;23;20435;-67
2023/12/12 02:19:08;;;;;;;3.50;2.67;;;8.20;99.90;;;;;;6193375;23;20401;-68
2023/12/12 02:21:37;;;;;;;4.23;2.30;;;8.20;99.90;;;;;;6192554;23;20381;-67
2023/12/12 02:27:26;;;;;;;4.90;3.27;;;8.20;99.90;;;;;;6190832;23;20459;-68
2023/12/12 02:30:27;;;;;;;4.97;3.30;;;8.20;99.90;;;;;;6190736;23;20476;-68
2023/12/12 02:32:55;;;;;;;5.63;2.97;;;8.20;99.90;;;;;;6192356;23;20440;-68
2023/12/12 02:35:22;;;;;;;3.70;3.03;;;8.20;99.90;;;;;;6191345;23;20377;-68
2023/12/12 02:37:50;;;;;;;6.93;3.40;;;8.20;99.90;;;;;;6190621;23;20421;-67
2023/12/12 02:43:39;;;;;;;4.70;2.67;;;8.20;99.90;;;;;;6193252;23;20372;-68
2023/12/12 02:46:21;;;;;;;4.57;3.47;;;8.30;99.90;;;;;;6193249;23;20381;-68
2023/12/12 02:48:48;;;;;;;5.47;3.40;;;8.30;99.90;;;;;;6192909;23;20392;-68
2023/12/12 02:51:14;;;;;;;6.60;3.50;;;8.30;99.90;;;;;;6191590;23;20840;-67
2023/12/12 02:54:24;;;;;;;5.50;3.60;;;8.30;99.90;;;;;;6192316;23;20831;-68
2023/12/12 02:56:54;;;;;;;6.50;4.67;;;8.30;99.90;;;;;;6165213;23;20447;-68
2023/12/12 02:59:21;;;;;;;7.23;4.10;;;8.30;99.90;;;;;;6190888;23;20419;-69
2023/12/12 03:02:10;;;;;;;5.50;3.90;;;8.30;99.90;;;;;;6190769;23;20439;-69
2023/12/12 03:04:37;;;;;;;4.37;3.30;;;8.30;99.90;;;;;;6191163;23;20443;-68
2023/12/12 03:07:04;;;;;;;5.37;3.40;;;8.30;99.90;;;;;;6193980;23;20421;-68
2023/12/12 03:09:42;;;;;;;5.00;3.47;;;8.30;99.90;;;;;;6191824;23;20389;-69
2023/12/12 03:12:10;;;;;;;5.47;3.70;;;8.30;99.90;;;;;;6190460;23;20440;-68
2023/12/12 03:14:38;;;;;;;6.03;3.60;;;8.20;99.90;;;;;;6189878;23;20388;-68
2023/12/12 03:17:27;;;;;;;7.30;3.43;;;8.20;99.90;;;;;;6190983;23;20432;-68
2023/12/12 03:23:17;;;;;;;5.40;4.07;;;8.20;99.90;;;;;;6206193;23;20356;-68
2023/12/12 03:26:07;;;;;;;6.27;3.50;;;8.20;99.90;;;;;;6204855;23;20389;-69
2023/12/12 03:32:44;;;;;;;5.50;3.70;;;8.20;99.90;;;;;;6194438;23;20440;-68
2023/12/12 03:35:12;;;;;;;4.77;3.33;;;8.10;99.90;;;;;;6190050;23;20385;-69
2023/12/12 03:37:44;;;;;;;4.70;3.30;;;8.10;99.90;;;;;;6189915;23;20424;-69
2023/12/12 03:40:12;;;;;;;5.40;3.20;;;8.10;99.90;;;;;;6193647;23;20389;-67
2023/12/12 03:42:39;;;;;;;4.83;3.77;;;8.10;99.90;;;;;;6194634;23;20483;-68
2023/12/12 03:45:08;;;;;;;4.80;3.63;;;8.10;99.90;;;;;;6194078;23;20386;-68
2023/12/12 03:47:57;;;;;;;5.53;4.17;;;8.10;99.90;;;;;;6195915;23;20425;-68
2023/12/12 03:50:29;;;;;;;5.60;3.23;;;8.10;99.90;;;;;;6194771;23;20381;-68
2023/12/12 03:52:56;;;;;;;4.30;3.00;;;8.10;99.90;;;;;;6194285;23;20512;-69
2023/12/12 03:55:24;;;;;;;4.50;3.07;;;8.10;99.90;;;;;;6193591;23;20430;-68
2023/12/12 03:57:51;;;;;;;2.80;1.60;;;8.10;99.90;;;;;;6193276;23;20424;-69
2023/12/12 04:00:23;;;;;;;2.03;1.43;;;8.10;99.90;;;;;;6193317;23;20381;-68
2023/12/12 04:02:50;;;;;;;1.20;0.90;;;8.10;99.90;;;;;;6193051;23;20393;-68
2023/12/12 04:05:17;;;;;;;1.43;1.00;;;8.10;99.90;;;;;;6194164;23;20385;-68
2023/12/12 04:10:13;;;;;;;1.43;1.20;;;8.00;99.90;;;;;;6165802;23;20426;-60
2023/12/12 04:12:40;;;;;;;1.67;1.00;;;7.90;99.90;;;;;;6166859;23;20460;-60
2023/12/12 04:15:08;;;;;;;2.00;1.50;;;7.90;99.90;;;;;;6165707;23;20437;-61
2023/12/12 04:17:35;;;;;;;2.30;1.77;;;7.80;99.90;;;;;;6168235;23;20422;-56
2023/12/12 04:20:02;;;;;;;2.00;1.30;;;7.80;99.90;;;;;;6166191;23;20472;-57
2023/12/12 04:22:28;;;;;;;3.27;1.57;;;7.80;99.90;;;;;;6165614;23;20432;-61
2023/12/12 04:24:55;;;;;;;2.30;1.87;;;7.80;99.90;;;;;;6164822;23;20469;-61
2023/12/12 04:27:24;;;;;;;1.40;1.13;;;7.70;99.90;;;;;;6160941;23;20414;-58
2023/12/12 04:29:50;;;;;;;1.87;1.10;;;7.70;99.90;;;;;;6160883;23;20504;-60
2023/12/12 04:32:17;;;;;;;3.20;1.40;;;7.70;99.90;;;;;;6160204;23;20446;-59
2023/12/12 04:34:45;;;;;;;2.53;1.83;;;7.80;99.90;;;;;;6160264;23;20908;-60
2023/12/12 04:37:12;;;;;;;2.37;1.63;;;7.80;99.90;;;;;;6160840;23;20402;-59
2023/12/12 04:39:39;;;;;;;4.37;1.60;;;7.70;99.90;;;;;;6160702;23;20402;-57
2023/12/12 04:42:06;;;;;;;2.33;2.13;;;7.70;99.90;;;;;;6160198;23;20433;-57
2023/12/12 04:44:34;;;;;;;5.80;2.23;;;7.70;99.90;;;;;;6160724;23;20504;-55
2023/12/12 04:47:01;;;;;;;4.70;2.03;;;7.70;99.90;;;;;;6160616;23;20464;-58
2023/12/12 04:49:28;;;;;;;4.10;2.37;;;7.60;99.90;;;;;;6160817;23;20421;-60
2023/12/12 04:51:55;;;;;;;10.60;2.67;;;7.60;99.90;;;;;;6160715;23;20955;-59
2023/12/12 04:54:22;;;;;;;4.23;2.40;;;7.60;99.90;;;;;;6160695;23;20444;-59
2023/12/12 04:56:49;;;;;;;4.67;2.23;;;7.60;99.90;;;;;;6160910;23;20437;-54
2023/12/12 04:59:15;;;;;;;7.33;3.20;;;7.60;99.90;;;;;;6160643;23;20509;-59
2023/12/12 05:01:44;;;;;;;2.93;2.53;;;7.60;99.90;;;;;;6161180;23;20883;-58
2023/12/12 05:04:11;;;;;;;3.30;2.37;;;7.60;99.90;;;;;;6160663;23;20905;-57
2023/12/12 05:06:38;;;;;;;6.80;2.17;;;7.60;99.90;;;;;;6160550;23;20445;-58
2023/12/12 05:09:05;;;;;;;13.17;3.63;;;7.60;99.90;;;;;;6160327;23;20481;-59
2023/12/12 05:11:32;;;;;;;4.67;2.60;;;7.60;99.90;;;;;;6160434;23;20457;-53
2023/12/12 05:13:58;;;;;;;2.03;1.70;;;7.60;99.90;;;;;;6160507;23;20425;-58
2023/12/12 05:16:25;;;;;;;3.20;2.13;;;7.60;99.90;;;;;;6160103;23;20425;-57
2023/12/12 05:18:54;;;;;;;3.40;2.57;;;7.60;99.90;;;;;;6159638;23;20434;-59
2023/12/12 05:21:21;;;;;;;3.53;2.00;;;7.60;99.90;;;;;;6160394;23;20401;-59
2023/12/12 05:23:49;;;;;;;6.53;2.40;;;7.60;99.90;;;;;;6160188;23;20429;-60
2023/12/12 05:26:18;;;;;;;3.60;2.50;;;7.60;99.90;;;;;;6159895;23;20505;-58
2023/12/12 05:28:44;;;;;;;3.17;2.87;;;7.50;99.90;;;;;;6160489;23;20755;-58
2023/12/12 05:31:11;;;;;;;4.93;2.47;;;7.50;99.90;;;;;;6160654;23;20401;-58
2023/12/12 05:33:38;;;;;;;2.90;2.40;;;7.50;99.90;;;;;;6160353;23;20521;-60
2023/12/12 05:36:07;;;;;;;2.97;2.10;;;7.40;99.90;;;;;;6161165;23;20896;-58
2023/12/12 05:38:34;;;;;;;2.13;1.80;;;7.40;99.90;;;;;;6160575;23;20670;-58
2023/12/12 05:41:01;;;;;;;9.00;2.00;;;7.40;99.90;;;;;;6160471;23;20418;-57
2023/12/12 05:43:28;;;;;;;5.87;2.93;;;7.50;99.90;;;;;;6160344;23;20887;-59
2023/12/12 05:45:55;;;;;;;8.47;2.47;;;7.50;99.90;;;;;;6160490;23;20401;-55
2023/12/12 05:48:22;;;;;;;2.80;1.90;;;7.60;99.90;;;;;;6159532;23;20472;-57
2023/12/12 05:50:49;;;;;;;11.03;2.20;;;7.50;99.90;;;;;;6159856;23;20441;-54
2023/12/12 05:53:17;;;;;;;4.40;2.10;;;7.50;99.90;;;;;;6159920;23;20480;-58
2023/12/12 05:55:44;;;;;;;3.60;2.30;;;7.50;99.90;;;;;;6160099;23;20505;-58
2023/12/12 05:58:11;;;;;;;2.70;1.80;;;7.50;99.90;;;;;;6160427;23;20409;-59
2023/12/12 06:00:39;;;;;;;5.10;2.10;;;7.50;99.90;;;;;;6160558;23;20472;-60
2023/12/12 06:03:08;;;;;;;11.13;2.57;;;7.50;99.90;;;;;;6160572;23;20480;-59
2023/12/12 06:05:35;;;;;;;5.20;2.30;;;7.60;99.90;;;;;;6160190;23;20433;-60
2023/12/12 06:08:01;;;;;;;2.13;1.87;;;7.60;99.90;;;;;;6159986;23;20402;-57
2023/12/12 06:10:30;;;;;;;3.30;2.07;;;7.60;99.90;;;;;;6160217;23;20393;-58
2023/12/12 06:12:56;;;;;;;2.40;1.77;;;7.60;99.90;;;;;;6159994;23;20519;-57
2023/12/12 06:15:23;;;;;;;3.53;2.00;;;7.60;99.90;;;;;;6160683;23;20722;-59
2023/12/12 06:17:50;;;;;;;3.57;2.90;;;7.60;99.90;;;;;;6160689;23;20443;-59
2023/12/12 06:20:17;;;;;;;3.07;2.33;;;7.60;99.90;;;;;;6159643;23;20433;-55
2023/12/12 06:22:44;;;;;;;5.43;2.60;;;7.50;99.90;;;;;;6159583;23;20908;-59
2023/12/12 06:25:11;;;;;;;11.60;3.23;;;7.50;99.90;;;;;;6159966;23;20465;-59
2023/12/12 06:27:40;;;;;;;3.80;2.50;;;7.60;99.90;;;;;;6160085;23;20433;-58
2023/12/12 06:30:08;;;;;;;5.07;2.67;;;7.60;99.90;;;;;;6159931;23;20445;-58
2023/12/12 06:32:34;;;;;;;3.10;2.73;;;7.60;99.90;;;;;;6160342;23;20634;-59
2023/12/12 06:35:04;;;;;;;3.93;2.33;;;7.60;99.90;;;;;;6160710;23;20903;-54
2023/12/12 06:37:30;;;;;;;6.00;2.37;;;7.50;99.90;;;;;;6160907;23;20488;-56
2023/12/12 06:39:58;;;;;;;2.90;2.30;;;7.50;99.90;;;;;;6160698;23;20890;-59
2023/12/12 06:42:25;;;;;;;5.20;2.87;;;7.50;99.90;;;;;;6160288;23;20402;-56
2023/12/12 06:44:53;;;;;;;7.17;3.87;;;7.50;99.90;;;;;;6160118;23;20865;-61
2023/12/12 06:47:20;;;;;;;3.97;2.63;;;7.50;99.90;;;;;;6160442;23;20442;-57
2023/12/12 06:49:47;;;;;;;8.20;3.13;;;7.50;99.90;;;;;;6160086;23;20436;-55
2023/12/12 06:52:14;;;;;;;8.67;3.17;;;7.40;99.90;;;;;;6160506;23;20707;-58
2023/12/12 06:54:40;;;;;;;6.07;4.10;;;7.40;99.90;;;;;;6159498;23;20449;-56
2023/12/12 06:57:07;;;;;;;6.30;3.03;;;7.50;99.90;;;;;;6160100;23;20402;-58
2023/12/12 06:59:34;;;;;;;5.47;3.13;;;7.40;99.90;;;;;;6159944;23;20490;-57
2023/12/12 07:02:02;;;;;;;4.83;2.73;;;7.50;99.90;;;;;;6159988;23;20430;-57
2023/12/12 07:04:29;;;;;;;6.73;3.67;;;7.40;99.90;;;;;;6160549;23;20452;-60
2023/12/12 07:06:56;;;;;;;5.33;4.10;;;7.40;99.90;;;;;;6160035;23;20460;-58
2023/12/12 07:09:23;;;;;;;7.47;3.30;;;7.40;99.90;;;;;;6160727;23;20695;-59
2023/12/12 07:11:50;;;;;;;4.47;3.17;;;7.40;99.90;;;;;;6160435;23;20450;-59
2023/12/12 07:14:16;;;;;;;8.50;3.43;;;7.40;99.90;;;;;;6161720;23;20492;-61
2023/12/12 07:16:43;;;;;;;7.77;3.47;;;7.40;99.90;;;;;;6161505;23;20485;-60
2023/12/12 07:19:11;;;;;;;9.00;4.20;;;7.40;99.90;;;;;;6160984;23;20448;-58
2023/12/12 07:21:42;;;;;;;4.27;3.47;;;7.40;99.90;;;;;;6161235;23;20450;-58
2023/12/12 07:24:10;;;;;;;7.07;3.80;;;7.40;99.90;;;;;;6161088;23;20405;-58
2023/12/12 07:26:37;;;;;;;12.03;3.63;;;7.40;99.90;;;;;;6161259;23;20429;-60
2023/12/12 07:29:05;;;;;;;17.33;3.90;;;7.40;99.90;;;;;;6162360;23;20932;-59
2023/12/12 07:31:32;;;;;;;11.77;4.13;;;7.40;99.90;;;;;;6161317;23;20429;-57
2023/12/12 07:33:58;;;;;;;6.03;3.80;;;7.50;99.90;;;;;;6161090;23;20452;-58
2023/12/12 07:36:27;;;;;;;5.63;4.00;;;7.50;99.90;;;;;;6161733;23;20508;-58
2023/12/12 07:38:55;;;;;;;7.30;3.83;;;7.40;99.90;;;;;;6161714;23;20426;-59
2023/12/12 07:41:22;;;;;;;8.83;4.80;;;7.40;99.90;;;;;;6161204;23;20425;-58
2023/12/12 07:43:48;;;;;;;11.03;5.17;;;7.50;99.90;;;;;;6160750;23;20844;-57
2023/12/12 07:46:15;;;;;;;8.23;4.90;;;7.50;99.90;;;;;;6161646;23;20535;-58
2023/12/12 07:48:42;;;;;;;6.37;3.37;;;7.50;99.90;;;;;;6161375;23;20429;-59
2023/12/12 07:51:11;;;;;;;7.10;4.53;;;7.50;99.90;;;;;;6161480;23;20510;-57
2023/12/12 07:53:39;;;;;;;16.43;5.60;;;7.50;99.90;;;;;;6161146;23;20460;-59
2023/12/12 07:56:07;;;;;;;8.93;4.87;;;7.50;99.90;;;;;;6161236;23;20672;-57
2023/12/12 07:58:34;;;;;;;7.50;3.77;;;7.50;99.90;;;;;;6161153;23;20441;-58
2023/12/12 08:01:01;;;;;;;13.73;4.80;;;7.50;99.90;;;;;;6161593;23;20413;-59
2023/12/12 08:03:28;;;;;;;13.07;5.37;;;7.50;99.90;;;;;;6161197;23;20457;-56
2023/12/12 08:05:54;;;;;;;14.97;4.40;;;7.50;99.90;;;;;;6161200;23;20457;-58
2023/12/12 08:08:21;;;;;;;11.23;4.47;;;7.40;99.90;;;;;;6161531;23;20478;-59
2023/12/12 08:10:50;;;;;;;8.67;4.37;;;7.40;99.90;;;;;;6160789;23;20463;-59
2023/12/12 08:13:17;;;;;;;5.40;3.47;;;7.50;99.90;;;;;;6160627;23;20974;-58
2023/12/12 08:15:46;;;;;;;7.73;3.70;;;7.50;99.90;;;;;;6160859;23;20441;-58
2023/12/12 08:18:13;;;;;;;8.77;5.33;;;7.40;99.90;;;;;;6160840;23;20426;-60
2023/12/12 08:20:40;;;;;;;10.00;3.87;;;7.40;99.90;;;;;;6160807;23;20433;-59
2023/12/12 08:23:07;;;;;;;5.63;3.30;;;7.40;99.90;;;;;;6160445;23;20481;-57
2023/12/12 08:25:34;;;;;;;10.73;3.70;;;7.50;99.90;;;;;;6160319;23;20465;-60
2023/12/12 08:28:03;;;;;;;6.77;4.00;;;7.50;99.90;;;;;;6160346;23;20489;-60
2023/12/12 08:30:30;;;;;;;11.20;4.60;;;7.50;99.90;;;;;;6160488;23;20425;-59
2023/12/12 08:32:57;;;;;;;8.50;4.13;;;7.50;99.90;;;;;;6160940;23;20481;-55
2023/12/12 08:35:24;;;;;;;9.73;3.90;;;7.50;99.90;;;;;;6160467;23;20398;-55
2023/12/12 08:37:51;;;;;;;7.57;3.47;;;7.50;99.90;;;;;;6160334;23;20446;-60
2023/12/12 08:40:17;;;;;;;9.73;4.10;;;7.50;99.90;;;;;;6160888;23;20433;-59
2023/12/12 08:42:44;;;;;;;4.83;3.70;;;7.50;99.90;;;;;;6160437;23;20401;-59
2023/12/12 08:45:13;;;;;;;7.20;3.73;;;7.60;99.90;;;;;;6160654;23;20429;-58
2023/12/12 08:47:40;;;;;;;13.57;4.97;;;7.50;99.90;;;;;;6160590;23;20406;-58
2023/12/12 08:50:09;;;;;;;4.43;3.70;;;7.50;99.90;;;;;;6160713;23;20425;-59
2023/12/12 08:52:36;;;;;;;5.70;4.07;;;7.60;99.90;;;;;;6160436;23;20418;-54
2023/12/12 08:55:05;;;;;;;6.00;3.57;;;7.60;99.90;;;;;;6161017;23;20425;-57
2023/12/12 08:57:34;;;;;;;7.27;3.83;;;7.60;99.90;;;;;;6160382;23;20390;-59
2023/12/12 09:00:01;;;;;;;5.27;3.70;;;7.60;99.90;;;;;;6160534;23;20406;-56
2023/12/12 09:02:30;;;;;;;6.73;4.17;;;7.60;99.90;;;;;;6160012;23;20441;-58
2023/12/12 09:04:57;;;;;;;4.70;2.73;;;7.60;99.90;;;;;;6160696;23;20425;-59
2023/12/12 09:07:24;;;;;;;6.57;3.07;;;7.70;99.90;;;;;;6159984;23;20911;-60
2023/12/12 09:09:51;;;;;;;4.40;2.80;;;7.60;99.90;;;;;;6160013;23;20420;-57
2023/12/12 09:12:18;;;;;;;18.60;4.07;;;7.60;99.90;;;;;;6160031;23;20426;-60
2023/12/12 09:14:45;;;;;;;11.57;4.50;;;7.50;99.90;;;;;;6160203;23;20441;-57
2023/12/12 09:17:12;;;;;;;6.33;3.00;;;7.50;99.90;;;;;;6160356;23;20873;-60
2023/12/12 09:19:40;;;;;;;6.80;3.20;;;7.60;99.90;;;;;;6160615;23;20402;-58
2023/12/12 09:22:07;;;;;;;8.40;2.93;;;7.50;99.90;;;;;;6159749;23;20437;-57
2023/12/12 09:24:34;;;;;;;4.47;3.10;;;7.60;99.90;;;;;;6159915;23;20401;-55
2023/12/12 09:27:01;;;;;;;4.83;2.70;;;7.50;99.90;;;;;;6160262;23;20402;-57
2023/12/12 09:29:29;;;;;;;5.10;2.20;;;7.50;99.90;;;;;;6160808;23;20433;-56
2023/12/12 09:31:57;;;;;;;4.00;2.50;;;7.50;99.90;;;;;;6160326;23;20445;-55
2023/12/12 09:34:24;;;;;;;7.03;3.10;;;7.60;99.90;;;;;;6160469;23;20449;-57
2023/12/12 09:36:53;;;;;;;3.77;3.03;;;7.60;99.90;;;;;;6160191;23;20882;-55
2023/12/12 09:39:20;;;;;;;6.70;2.90;;;7.50;99.90;;;;;;6160481;23;20869;-56
2023/12/12 09:41:49;;;;;;;3.40;2.53;;;7.50;99.90;;;;;;6159844;23;20434;-60
2023/12/12 09:44:17;;;;;;;9.17;3.13;;;7.50;99.90;;;;;;6160191;23;20421;-54
2023/12/12 09:46:45;;;;;;;3.60;2.20;;;7.50;99.90;;;;;;6160555;23;20417;-58
2023/12/12 09:49:14;;;;;;;9.40;2.17;;;7.50;99.90;;;;;;6160303;23;20430;-56
2023/12/12 09:51:42;;;;;;;4.17;2.57;;;7.50;99.90;;;;;;6160264;23;20476;-53
2023/12/12 09:54:12;;;;;;;4.67;2.50;;;7.50;99.90;;;;;;6159065;23;20493;-56
2023/12/12 09:56:39;;;;;;;7.70;3.17;;;7.50;99.90;;;;;;6160014;23;20425;-58
2023/12/12 09:59:06;;;;;;;3.57;2.67;;;7.50;99.90;;;;;;6160079;23;20421;-56
2023/12/12 10:01:34;;;;;;;4.80;2.53;;;7.50;99.90;;;;;;6159077;23;20475;-58
2023/12/12 10:04:05;;;;;;;7.50;2.60;;;7.60;99.90;;;;;;6156742;23;20408;-58
2023/12/12 10:06:39;;;;;;;3.27;2.57;;;7.60;99.90;;;;;;6157308;23;20457;-56
2023/12/12 10:09:06;;;;;;;15.40;4.23;;;7.60;99.90;;;;;;6156761;23;20424;-57
2023/12/12 10:11:34;;;;;;;7.13;3.70;;;7.60;99.90;;;;;;6157326;23;20405;-59
2023/12/12 10:14:01;;;;;;;4.00;2.80;;;7.60;99.90;;;;;;6156753;23;20450;-60
2023/12/12 10:16:30;;;;;;;2.57;2.37;;;7.60;99.90;;;;;;6157247;23;20437;-58
2023/12/12 10:19:01;;;;;;;5.80;2.83;;;7.60;99.90;;;;;;6156676;23;20429;-58
2023/12/12 10:21:28;;;;;;;5.80;2.50;;;7.50;99.90;;;;;;6157353;23;20418;-55
2023/12/12 10:23:56;;;;;;;6.30;2.20;;;7.60;99.90;;;;;;6156906;23;20401;-55
2023/12/12 10:26:29;;;;;;;6.23;2.73;;;7.60;99.90;;;;;;6157232;23;20418;-56
2023/12/12 10:28:58;;;;;;;4.40;2.97;;;7.60;99.90;;;;;;6156883;23;20409;-60
2023/12/12 10:31:25;;;;;;;7.27;3.20;;;7.60;99.90;;;;;;6156745;23;20484;-59
2023/12/12 10:33:54;;;;;;;5.57;2.33;;;7.60;99.90;;;;;;6156935;23;20538;-62
2023/12/12 10:36:22;;;;;;;7.47;3.40;;;7.70;99.90;;;;;;6157083;23;20468;-59
2023/12/12 10:38:49;;;;;;;5.60;2.97;;;7.70;99.90;;;;;;6156963;23;20864;-58
2023/12/12 10:41:18;;;;;;;4.20;2.53;;;7.70;99.90;;;;;;6157086;23;20430;-59
2023/12/12 10:43:47;;;;;;;3.83;2.67;;;7.70;99.90;;;;;;6157232;23;20418;-58
2023/12/12 10:46:16;;;;;;;3.40;2.80;;;7.70;99.90;;;;;;6157960;23;20418;-55
2023/12/12 10:48:46;;;;;;;7.10;3.23;;;7.80;99.90;;;;;;6159037;23;20406;-58
2023/12/12 10:51:14;;;;;;;4.70;3.17;;;7.80;99.90;;;;;;6158672;23;20405;-58
2023/12/12 10:53:42;;;;;;;5.13;2.57;;;7.80;99.90;;;;;;6158531;23;20449;-57
2023/12/12 10:56:11;;;;;;;3.47;2.43;;;7.80;99.90;;;;;;6158540;23;20508;-58
2023/12/12 10:58:40;;;;;;;3.90;3.00;;;7.80;99.90;;;;;;6158289;23;20426;-56
2023/12/12 11:01:08;;;;;;;10.47;3.00;;;7.90;99.90;;;;;;6158553;23;20821;-56
2023/12/12 11:03:37;;;;;;;3.47;2.60;;;7.90;99.90;;;;;;6158744;23;20401;-58
2023/12/12 11:06:05;;;;;;;8.20;2.93;;;8.00;99.90;;;;;;6158696;23;20440;-58
2023/12/12 11:08:33;;;;;;;5.63;2.70;;;8.00;99.90;;;;;;6158737;23;20424;-57
2023/12/12 11:11:02;;;;;;;5.27;3.30;;;8.10;99.90;;;;;;6158569;23;20864;-57
2023/12/12 11:13:33;;;;;;;9.00;4.70;;;8.20;99.90;;;;;;6158814;23;20424;-51
2023/12/12 11:16:03;;;;;;;5.43;3.40;;;8.30;99.90;;;;;;6158875;23;20429;-56
2023/12/12 11:18:31;;;;;;;6.87;3.30;;;8.60;99.90;;;;;;6158390;23;20414;-59
2023/12/12 11:20:59;;;;;;;10.77;4.20;;;8.60;99.90;;;;;;6158695;23;20425;-56
2023/12/12 11:23:53;;;;;;;6.50;3.30;;;8.60;99.90;;;;;;6158700;23;20504;-56
2023/12/12 11:26:23;;;;;;;13.23;3.50;;;8.60;99.90;;;;;;6158526;23;20416;-60
2023/12/12 11:28:50;;;;;;;6.27;3.10;;;8.80;99.90;;;;;;6158615;23;20386;-58
2023/12/12 11:31:26;;;;;;;4.30;3.03;;;8.90;99.90;;;;;;6158156;23;20438;-58
2023/12/12 11:34:04;;;;;;;7.30;3.40;;;8.90;99.90;;;;;;6158461;23;20467;-57
2023/12/12 11:36:48;;;;;;;6.30;2.73;;;8.90;99.90;;;;;;6158236;23;20409;-57
2023/12/12 11:39:19;;;;;;;6.73;3.63;;;8.90;99.90;;;;;;6158448;23;20764;-60
2023/12/12 11:41:46;;;;;;;4.73;2.63;;;8.90;99.90;;;;;;6158764;23;20459;-61
2023/12/12 11:44:13;;;;;;;3.70;2.03;;;8.90;99.90;;;;;;6155693;23;20429;-63
2023/12/12 11:46:40;;;;;;;6.30;3.27;;;9.00;99.90;;;;;;6157949;23;20444;-65
2023/12/12 11:49:18;;;;;;;9.07;3.37;;;9.00;99.90;;;;;;6157828;23;20803;-65
2023/12/12 11:51:49;;;;;;;7.80;2.73;;;8.90;99.90;;;;;;6157985;23;20437;-66
2023/12/12 11:54:21;;;;;;;12.73;3.27;;;8.90;99.90;;;;;;6158058;23;20505;-64
2023/12/12 11:56:54;;;;;;;4.90;2.27;;;9.00;99.90;;;;;;6157388;23;20430;-65
2023/12/12 11:59:22;;;;;;;6.33;2.60;;;8.90;99.90;;;;;;6157849;23;20398;-65
2023/12/12 12:01:50;;;;;;;5.17;2.57;;;8.90;99.90;;;;;;6157555;23;20868;-61
2023/12/12 12:04:17;;;;;;;3.53;2.40;;;8.90;99.90;;;;;;6157661;23;20501;-65
2023/12/12 12:06:46;;;;;;;10.63;2.90;;;8.90;99.90;;;;;;6157834;23;20464;-64
2023/12/12 12:09:15;;;;;;;5.70;2.13;;;8.90;99.90;;;;;;6157551;23;20421;-64
2023/12/12 12:11:47;;;;;;;4.13;2.00;;;8.90;99.90;;;;;;6158063;23;20520;-64
2023/12/12 12:14:15;;;;;;;3.10;2.27;;;8.90;99.90;;;;;;6164425;23;20426;-66
2023/12/12 12:16:43;;;;;;;6.70;2.60;;;8.90;99.90;;;;;;6162167;23;20418;-67
2023/12/12 12:19:32;;;;;;;3.37;2.27;;;8.90;99.90;;;;;;6162236;23;20425;-62
2023/12/12 12:22:04;;;;;;;6.03;3.13;;;8.90;99.90;;;;;;6162142;23;20481;-63
2023/12/12 12:24:32;;;;;;;8.37;2.50;;;9.00;99.90;;;;;;6162517;23;20485;-64
2023/12/12 12:26:59;;;;;;;4.83;2.13;;;9.10;99.90;;;;;;6163049;23;20402;-64
2023/12/12 12:29:26;;;;;;;4.33;2.83;;;9.10;99.90;;;;;;6163261;23;20574;-63
2023/12/12 12:31:53;;;;;;;3.87;2.60;;;9.10;99.90;;;;;;6162258;23;20927;-64
2023/12/12 12:34:22;;;;;;;3.10;2.30;;;9.10;99.90;;;;;;6161320;23;20480;-62
2023/12/12 12:36:51;;;;;;;2.47;2.27;;;9.00;99.90;;;;;;6157736;23;20425;-65
2023/12/12 12:39:20;;;;;;;8.87;2.83;;;8.90;99.90;;;;;;6157622;23;20422;-63
2023/12/12 12:41:54;;;;;;;5.73;4.07;;;9.00;99.90;;;;;;6158146;23;20488;-65
2023/12/12 12:44:22;;;;;;;4.00;2.20;;;9.00;99.90;;;;;;6157659;23;20860;-67
2023/12/12 12:46:50;;;;;;;4.40;3.10;;;9.10;99.90;;;;;;6157558;23;20908;-63
2023/12/12 12:49:18;;;;;;;4.70;2.43;;;9.20;99.90;;;;;;6158077;23;20469;-63
2023/12/12 12:51:47;;;;;;;3.90;2.93;;;9.30;99.90;;;;;;6157842;23;20508;-62
2023/12/12 12:54:14;;;;;;;3.17;2.87;;;9.40;99.90;;;;;;6157972;23;20453;-64
2023/12/12 12:56:44;;;;;;;4.60;2.00;;;9.40;99.90;;;;;;6157531;23;20406;-61
2023/12/12 12:59:13;;;;;;;3.03;1.93;;;9.40;99.90;;;;;;6157870;23;20414;-63
2023/12/12 13:01:41;;;;;;;4.87;2.73;;;9.40;99.90;;;;;;6163870;23;20744;-63
2023/12/12 13:04:09;;;;;;;3.63;1.53;;;9.40;99.90;;;;;;6163551;23;20432;-63
2023/12/12 13:06:36;;;;;;;3.83;1.67;;;9.40;99.90;;;;;;6162230;23;20414;-65
2023/12/12 13:09:04;;;;;;;3.57;2.13;;;9.30;99.90;;;;;;6162308;23;20448;-64
2023/12/12 13:11:31;;;;;;;3.30;1.87;;;9.20;99.90;;;;;;6161232;23;20418;-64
2023/12/12 13:13:59;;;;;;;2.70;1.70;;;9.20;99.90;;;;;;6161446;23;20445;-66
2023/12/12 13:16:27;;;;;;;5.60;2.30;;;9.20;99.90;;;;;;6160130;23;20904;-66
2023/12/12 13:18:54;;;;;;;8.60;2.60;;;9.20;99.90;;;;;;6161023;23;20406;-65
2023/12/12 13:21:21;;;;;;;3.60;2.47;;;9.20;99.90;;;;;;6162086;23;20452;-64
2023/12/12 13:23:48;;;;;;;6.20;2.10;;;9.10;99.90;;;;;;6160885;23;20409;-64
2023/12/12 13:26:15;;;;;;;3.90;2.63;;;9.20;99.90;;;;;;6161177;23;20433;-63